createdAt,value
2022-12-11T09:15:32.366Z,98897.34
2022-12-11T09:19:38.262Z,98898.25
2022-12-11T09:22:52.941Z,98877.34
2022-12-11T10:01:50.119Z,98900.00
2022-12-11T10:05:37.992Z,98894.59
2022-12-11T10:20:30.935Z,98861.22
2022-12-11T10:23:50.990Z,98884.94
2022-12-11T10:27:20.030Z,98864.41
2022-12-11T10:30:34.833Z,98901.66
2022-12-11T10:34:05.952Z,98906.91
2022-12-11T10:37:15.040Z,98924.50
2022-12-11T10:40:36.990Z,98902.31
2022-12-11T10:43:44.999Z,98888.41
2022-12-11T10:47:25.077Z,98908.59
2022-12-11T10:50:34.375Z,98928.97
2022-12-11T10:54:04.009Z,98934.22
2022-12-11T10:57:15.510Z,98876.34
2022-12-11T11:00:42.014Z,98934.19
2022-12-11T11:03:57.630Z,98950.00
2022-12-11T11:07:26.024Z,98934.19
2022-12-11T11:10:37.074Z,98931.56
2022-12-11T11:13:52.126Z,98927.19
2022-12-11T11:17:01.194Z,98934.16
2022-12-11T11:20:22.278Z,98918.44
2022-12-11T11:23:30.658Z,98914.78
2022-12-11T11:27:12.266Z,98899.12
2022-12-11T11:34:38.055Z,98781.56
2022-12-11T11:37:56.109Z,98802.22
2022-12-11T11:41:22.008Z,98908.56
2022-12-11T11:44:50.966Z,98937.47
2022-12-11T11:48:11.613Z,98913.03
2022-12-11T11:51:33.990Z,98941.56
2022-12-11T11:54:47.971Z,98858.06
2022-12-11T11:58:04.059Z,98944.38
2022-12-11T12:01:22.010Z,98930.72
2022-12-11T12:04:41.021Z,98962.81
2022-12-11T12:08:06.072Z,98966.28
2022-12-11T12:11:32.184Z,98936.97
2022-12-11T12:19:24.038Z,98969.56
2022-12-11T12:22:52.547Z,98981.84
2022-12-11T12:31:17.632Z,98977.16
2022-12-11T12:35:03.663Z,98979.72
2022-12-11T12:38:23.666Z,98980.06
2022-12-11T12:41:57.077Z,98967.28
2022-12-11T12:45:28.038Z,98978.44
2022-12-11T12:48:36.948Z,99006.59
2022-12-11T12:51:46.955Z,98995.16
2022-12-11T12:55:06.924Z,98970.94
2022-12-11T12:58:47.533Z,98995.16
2022-12-11T13:02:08.544Z,99014.38
2022-12-11T13:05:25.146Z,99021.31
2022-12-11T13:08:54.560Z,98967.03
2022-12-11T13:12:13.281Z,99048.37
2022-12-11T13:15:39.555Z,99054.41
2022-12-11T13:18:59.678Z,99052.72
2022-12-11T13:22:23.102Z,99056.25
2022-12-11T13:49:51.699Z,99093.94
2022-12-11T13:53:37.056Z,99083.47
2022-12-11T14:11:44.374Z,99126.59
2022-12-11T14:37:41.598Z,99176.81
2022-12-11T14:49:19.304Z,98953.56
2022-12-11T15:00:07.166Z,99039.47
2022-12-11T15:07:48.784Z,99176.59
2022-12-11T15:15:35.742Z,99192.19
2022-12-11T15:30:44.784Z,99115.28
2022-12-11T15:38:16.985Z,99209.75
2022-12-11T15:56:49.843Z,99206.34
2022-12-11T16:04:53.242Z,99218.56
2022-12-11T16:08:15.415Z,99220.50
2022-12-11T16:11:42.847Z,99229.19
2022-12-11T16:23:08.569Z,99232.84
2022-12-11T16:26:43.789Z,99242.38
2022-12-11T16:35:01.541Z,99157.44
2022-12-11T16:38:07.464Z,99221.66
2022-12-11T16:42:19.022Z,99245.06
2022-12-11T16:45:44.159Z,99074.31
2022-12-11T16:49:28.821Z,99251.16
2022-12-11T16:52:36.730Z,99251.16
2022-12-11T17:15:49.874Z,99253.94
2022-12-11T17:19:42.203Z,99110.00
2022-12-11T17:22:58.267Z,99254.09
2022-12-11T17:26:34.306Z,99244.50
2022-12-11T17:29:45.758Z,99241.03
2022-12-11T17:37:00.795Z,99263.69
2022-12-11T17:40:38.202Z,99260.13
2022-12-11T17:56:51.220Z,99254.25
2022-12-11T18:14:54.762Z,99267.31
2022-12-11T18:22:16.863Z,99270.75
2022-12-11T18:25:47.724Z,99279.47
2022-12-11T18:33:22.416Z,99282.22
2022-12-11T18:36:41.853Z,99270.94
2022-12-11T18:39:48.943Z,99289.22
2022-12-11T18:43:19.503Z,99303.16
2022-12-11T18:46:37.495Z,99278.03
2022-12-11T18:54:10.692Z,99315.37
2022-12-11T19:16:27.613Z,99300.75
2022-12-11T19:24:05.666Z,99110.78
2022-12-11T19:31:23.267Z,99221.00
2022-12-11T19:34:37.678Z,99310.44
2022-12-11T19:41:56.576Z,99327.78
2022-12-11T19:45:32.660Z,99342.62
2022-12-11T19:56:34.606Z,99329.59
2022-12-11T20:00:51.726Z,99342.72
2022-12-11T20:04:11.651Z,99335.78
2022-12-11T20:10:55.127Z,99330.47
2022-12-11T20:14:09.698Z,99330.53
2022-12-11T20:25:24.727Z,99354.09
2022-12-11T20:32:36.642Z,99358.56
2022-12-11T20:35:51.762Z,99363.81
2022-12-11T20:39:36.590Z,99361.25
2022-12-11T20:42:57.594Z,99341.28
2022-12-11T20:46:21.681Z,99182.38
2022-12-11T21:01:00.718Z,99379.59
2022-12-11T21:04:48.574Z,99362.16
2022-12-11T21:15:47.442Z,99394.50
2022-12-11T21:19:51.273Z,99389.25
2022-12-11T21:23:10.926Z,99378.00
2022-12-11T21:26:31.393Z,99181.66
2022-12-11T21:33:05.266Z,99431.19
2022-12-11T21:36:18.521Z,99418.12
2022-12-11T21:39:27.694Z,99435.53
2022-12-11T21:43:21.204Z,99446.00
2022-12-11T21:46:57.635Z,99222.56
2022-12-11T21:50:16.089Z,99420.78
2022-12-11T21:53:24.553Z,99439.06
2022-12-11T22:12:09.926Z,99450.41
2022-12-11T22:15:23.315Z,99406.06
2022-12-11T22:19:30.806Z,99315.59
2022-12-11T22:22:48.798Z,99453.06
2022-12-11T22:29:58.849Z,99448.69
2022-12-11T22:33:25.402Z,99456.53
2022-12-11T22:36:40.741Z,99447.81
2022-12-11T22:40:04.011Z,99452.22
2022-12-11T22:43:23.798Z,99444.37
2022-12-11T22:46:34.302Z,99437.41
2022-12-11T22:49:56.759Z,99396.53
2022-12-11T22:53:14.282Z,99369.53
2022-12-11T22:56:39.509Z,99465.28
2022-12-11T23:00:42.550Z,99453.09
2022-12-11T23:03:53.088Z,99468.78
2022-12-11T23:07:11.762Z,99466.16
2022-12-11T23:10:23.668Z,99471.38
2022-12-11T23:13:45.453Z,99470.53
2022-12-11T23:16:59.395Z,99444.41
2022-12-11T23:20:09.221Z,99469.63
2022-12-11T23:23:23.755Z,99391.31
2022-12-11T23:26:32.894Z,99471.41
2022-12-11T23:29:47.606Z,99476.59
2022-12-11T23:32:58.804Z,99339.97
2022-12-11T23:36:28.524Z,99466.16
2022-12-11T23:52:56.631Z,99480.94
2022-12-11T23:56:18.313Z,99461.81
